sensor_id;sensor_type;location;lat;lon;timestamp;pressure;altitude;pressure_sealevel;temperature;humidity
23679;BME280;12016;51.668;6.874;2023-03-16T00:00:45;101435.81;;;4.62;55.54
23679;BME280;12016;51.668;6.874;2023-03-16T00:06:47;101287.81;;;3.64;55.03
23679;BME280;12016;51.668;6.874;2023-03-16T00:12:49;101403.38;;;4.43;55.49
23679;BME280;12016;51.668;6.874;2023-03-16T00:18:50;101665.13;;;6.01;55.83
23679;BME280;12016;51.668;6.874;2023-03-16T00:24:53;101656.56;;;5.99;55.13
23679;BME280;12016;51.668;6.874;2023-03-16T00:30:55;101467.28;;;4.28;54.50
23679;BME280;12016;51.668;6.874;2023-03-16T00:36:59;101646.88;;;5.88;55.19
23679;BME280;12016;51.668;6.874;2023-03-16T00:43:01;101426.59;;;4.16;54.90
23679;BME280;12016;51.668;6.874;2023-03-16T00:49:04;101437.41;;;4.31;54.46
23679;BME280;12016;51.668;6.874;2023-03-16T00:55:07;101663.03;;;5.66;54.82
23679;BME280;12016;51.668;6.874;2023-03-16T01:01:14;101545.97;;;4.89;55.41
23679;BME280;12016;51.668;6.874;2023-03-16T01:07:17;101555.56;;;5.22;54.92
23679;BME280;12016;51.668;6.874;2023-03-16T01:13:20;101629.09;;;5.67;55.32
23679;BME280;12016;51.668;6.874;2023-03-16T01:19:22;101542.75;;;5.24;55.44
23679;BME280;12016;51.668;6.874;2023-03-16T01:25:24;101500.41;;;5.01;55.72
23679;BME280;12016;51.668;6.874;2023-03-16T01:31:25;101374.28;;;4.37;55.18
23679;BME280;12016;51.668;6.874;2023-03-16T01:37:29;101437.78;;;4.77;55.80
23679;BME280;12016;51.668;6.874;2023-03-16T01:43:37;101441.94;;;4.99;55.81
23679;BME280;12016;51.668;6.874;2023-03-16T01:49:39;101383.03;;;4.69;55.28
23679;BME280;12016;51.668;6.874;2023-03-16T01:55:41;101331.59;;;4.37;55.39
23679;BME280;12016;51.668;6.874;2023-03-16T02:01:44;101575.28;;;6.00;55.97
23679;BME280;12016;51.668;6.874;2023-03-16T02:07:50;101394.13;;;4.98;55.78
23679;BME280;12016;51.668;6.874;2023-03-16T02:13:54;101255.97;;;4.11;55.05
23679;BME280;12016;51.668;6.874;2023-03-16T02:32:35;101321.09;;;4.62;55.54
23679;BME280;12016;51.668;6.874;2023-03-16T02:38:37;101054.25;;;2.90;55.92
23679;BME280;12016;51.668;6.874;2023-03-16T02:44:39;101062.94;;;3.12;55.76
23679;BME280;12016;51.668;6.874;2023-03-16T02:50:46;101517.78;;;6.03;55.66
23679;BME280;12016;51.668;6.874;2023-03-16T02:56:49;101507.38;;;5.96;55.02
23679;BME280;12016;51.668;6.874;2023-03-16T03:02:52;101360.28;;;5.03;55.51
23679;BME280;12016;51.668;6.874;2023-03-16T03:08:55;101500.44;;;6.05;54.99
23679;BME280;12016;51.668;6.874;2023-03-16T03:14:57;101533.06;;;6.07;55.49
23679;BME280;12016;51.668;6.874;2023-03-16T03:21:04;101488.66;;;6.12;55.17
23679;BME280;12016;51.668;6.874;2023-03-16T03:27:08;101407.25;;;5.72;55.61
23679;BME280;12016;51.668;6.874;2023-03-16T03:33:11;101490.56;;;6.21;54.97
23679;BME280;12016;51.668;6.874;2023-03-16T03:39:13;101490.31;;;6.23;54.97
23679;BME280;12016;51.668;6.874;2023-03-16T03:45:15;101470.44;;;5.98;55.93
23679;BME280;12016;51.668;6.874;2023-03-16T03:51:18;101341.94;;;5.32;55.31
23679;BME280;12016;51.668;6.874;2023-03-16T03:57:37;101147.69;;;4.05;55.22
23679;BME280;12016;51.668;6.874;2023-03-16T04:03:39;101467.31;;;6.22;54.97
23679;BME280;12016;51.668;6.874;2023-03-16T04:09:42;101468.38;;;6.21;55.15
23679;BME280;12016;51.668;6.874;2023-03-16T04:15:58;101450.19;;;6.23;55.15
23679;BME280;12016;51.668;6.874;2023-03-16T04:22:05;101440.00;;;6.25;56.04
23679;BME280;12016;51.668;6.874;2023-03-16T04:28:09;101208.25;;;4.72;55.42
23679;BME280;12016;51.668;6.874;2023-03-16T04:34:13;101226.16;;;4.76;55.55
23679;BME280;12016;51.668;6.874;2023-03-16T04:40:15;101299.75;;;5.29;56.77
23679;BME280;12016;51.668;6.874;2023-03-16T04:46:24;101431.97;;;6.25;56.35
23679;BME280;12016;51.668;6.874;2023-03-16T04:52:28;101042.34;;;3.82;56.09
23679;BME280;12016;51.668;6.874;2023-03-16T04:58:30;101227.84;;;4.92;56.11
23679;BME280;12016;51.668;6.874;2023-03-16T05:04:35;101175.69;;;4.59;56.29
23679;BME280;12016;51.668;6.874;2023-03-16T05:10:37;101304.88;;;5.61;56.00
23679;BME280;12016;51.668;6.874;2023-03-16T05:16:39;101278.13;;;5.36;56.44
23679;BME280;12016;51.668;6.874;2023-03-16T05:22:44;101341.84;;;5.90;56.34
23679;BME280;12016;51.668;6.874;2023-03-16T05:29:03;101094.00;;;4.43;55.89
23679;BME280;12016;51.668;6.874;2023-03-16T05:35:05;101291.50;;;5.41;56.23
23679;BME280;12016;51.668;6.874;2023-03-16T05:41:08;101297.38;;;5.48;55.29
23679;BME280;12016;51.668;6.874;2023-03-16T05:47:27;101182.66;;;4.81;55.13
23679;BME280;12016;51.668;6.874;2023-03-16T05:53:32;101123.06;;;4.45;55.25
23679;BME280;12016;51.668;6.874;2023-03-16T05:59:44;101396.66;;;6.13;55.52
23679;BME280;12016;51.668;6.874;2023-03-16T06:05:47;101418.88;;;6.38;55.05
23679;BME280;12016;51.668;6.874;2023-03-16T06:11:57;101216.94;;;5.14;55.62
23679;BME280;12016;51.668;6.874;2023-03-16T06:18:00;100933.78;;;3.52;55.67
23679;BME280;12016;51.668;6.874;2023-03-16T06:24:02;101343.97;;;6.13;54.88
23679;BME280;12016;51.668;6.874;2023-03-16T06:30:06;101429.59;;;6.74;55.46
23679;BME280;12016;51.668;6.874;2023-03-16T06:36:09;101422.34;;;6.74;56.11
23679;BME280;12016;51.668;6.874;2023-03-16T06:42:15;101111.69;;;4.85;55.65
23679;BME280;12016;51.668;6.874;2023-03-16T06:48:18;101396.13;;;6.66;55.96
23679;BME280;12016;51.668;6.874;2023-03-16T06:54:21;101188.66;;;5.49;54.33
23679;BME280;12016;51.668;6.874;2023-03-16T07:00:23;101357.09;;;6.35;55.14
23679;BME280;12016;51.668;6.874;2023-03-16T07:06:25;101328.19;;;6.47;54.93
23679;BME280;12016;51.668;6.874;2023-03-16T07:12:28;101434.53;;;7.36;54.13
23679;BME280;12016;51.668;6.874;2023-03-16T07:18:30;101394.91;;;7.23;53.47
23679;BME280;12016;51.668;6.874;2023-03-16T07:24:33;101131.75;;;5.48;53.86
23679;BME280;12016;51.668;6.874;2023-03-16T07:30:35;101180.34;;;6.01;53.34
23679;BME280;12016;51.668;6.874;2023-03-16T07:36:38;101324.25;;;7.09;52.98
23679;BME280;12016;51.668;6.874;2023-03-16T07:42:40;101379.00;;;7.42;52.00
23679;BME280;12016;51.668;6.874;2023-03-16T07:48:52;101440.66;;;7.96;52.37
23679;BME280;12016;51.668;6.874;2023-03-16T07:54:54;101392.19;;;7.87;52.91
23679;BME280;12016;51.668;6.874;2023-03-16T08:00:58;101423.28;;;7.88;52.29
23679;BME280;12016;51.668;6.874;2023-03-16T08:07:00;101360.28;;;7.81;52.15
23679;BME280;12016;51.668;6.874;2023-03-16T08:13:21;101381.69;;;7.91;51.80
23679;BME280;12016;51.668;6.874;2023-03-16T08:19:23;101371.00;;;7.86;51.97
23679;BME280;12016;51.668;6.874;2023-03-16T08:25:28;101344.34;;;7.61;52.22
23679;BME280;12016;51.668;6.874;2023-03-16T08:31:39;101117.47;;;6.14;51.50
23679;BME280;12016;51.668;6.874;2023-03-16T08:37:51;101184.50;;;6.48;51.42
23679;BME280;12016;51.668;6.874;2023-03-16T08:43:55;101177.31;;;6.28;52.11
23679;BME280;12016;51.668;6.874;2023-03-16T08:49:58;101132.50;;;5.84;54.14
23679;BME280;12016;51.668;6.874;2023-03-16T08:56:05;101443.41;;;7.86;54.62
23679;BME280;12016;51.668;6.874;2023-03-16T09:02:11;101150.56;;;6.28;54.49
23679;BME280;12016;51.668;6.874;2023-03-16T09:08:14;101251.47;;;6.92;53.74
23679;BME280;12016;51.668;6.874;2023-03-16T09:14:17;101459.63;;;8.10;53.73
23679;BME280;12016;51.668;6.874;2023-03-16T09:20:19;101487.19;;;8.20;53.15
23679;BME280;12016;51.668;6.874;2023-03-16T09:26:27;101005.06;;;5.59;52.75
23679;BME280;12016;51.668;6.874;2023-03-16T09:32:29;101275.53;;;7.85;51.98
23679;BME280;12016;51.668;6.874;2023-03-16T09:38:31;101247.06;;;7.89;51.60
23679;BME280;12016;51.668;6.874;2023-03-16T09:50:38;101369.44;;;8.77;51.34
23679;BME280;12016;51.668;6.874;2023-03-16T09:56:49;101357.09;;;9.00;51.41
23679;BME280;12016;51.668;6.874;2023-03-16T10:03:14;101415.41;;;9.65;51.63
23679;BME280;12016;51.668;6.874;2023-03-16T10:09:31;101410.25;;;9.88;51.62
23679;BME280;12016;51.668;6.874;2023-03-16T10:15:35;101061.94;;;7.70;50.81
23679;BME280;12016;51.668;6.874;2023-03-16T10:21:39;101216.69;;;8.70;51.47
23679;BME280;12016;51.668;6.874;2023-03-16T10:27:43;101389.69;;;9.97;51.92
23679;BME280;12016;51.668;6.874;2023-03-16T10:33:47;101380.25;;;9.99;52.00
23679;BME280;12016;51.668;6.874;2023-03-16T10:39:50;101361.16;;;10.15;51.81
23679;BME280;12016;51.668;6.874;2023-03-16T10:45:57;101358.44;;;10.15;51.40
23679;BME280;12016;51.668;6.874;2023-03-16T10:52:05;101347.41;;;10.16;51.17
23679;BME280;12016;51.668;6.874;2023-03-16T10:58:28;101341.56;;;10.60;51.25
23679;BME280;12016;51.668;6.874;2023-03-16T11:04:31;101341.47;;;11.56;49.34
23679;BME280;12016;51.668;6.874;2023-03-16T11:10:36;101332.91;;;11.90;47.51
23679;BME280;12016;51.668;6.874;2023-03-16T11:17:05;101339.25;;;12.70;45.78
23679;BME280;12016;51.668;6.874;2023-03-16T11:23:13;101121.00;;;13.65;42.72
23679;BME280;12016;51.668;6.874;2023-03-16T11:29:23;101087.91;;;16.65;36.96
23679;BME280;12016;51.668;6.874;2023-03-16T11:35:38;101035.88;;;15.53;36.34
23679;BME280;12016;51.668;6.874;2023-03-16T11:48:24;101130.78;;;20.14;30.93
23679;BME280;12016;51.668;6.874;2023-03-16T12:00:41;101000.97;;;23.19;24.87
23679;BME280;12016;51.668;6.874;2023-03-16T12:19:45;101074.25;;;19.04;28.24
23679;BME280;12016;51.668;6.874;2023-03-16T12:25:51;101056.91;;;16.82;31.24
23679;BME280;12016;51.668;6.874;2023-03-16T12:32:06;101183.72;;;15.44;34.39
23679;BME280;12016;51.668;6.874;2023-03-16T12:38:38;101182.94;;;15.01;36.25
23679;BME280;12016;51.668;6.874;2023-03-16T12:44:47;100737.78;;;11.96;36.85
23679;BME280;12016;51.668;6.874;2023-03-16T12:50:52;101180.81;;;14.86;37.75
23679;BME280;12016;51.668;6.874;2023-03-16T12:57:05;101160.59;;;15.37;37.24
23679;BME280;12016;51.668;6.874;2023-03-16T13:03:13;101083.22;;;14.65;36.87
23679;BME280;12016;51.668;6.874;2023-03-16T13:09:19;101143.13;;;14.73;37.35
23679;BME280;12016;51.668;6.874;2023-03-16T13:21:39;101107.38;;;17.50;34.06
23679;BME280;12016;51.668;6.874;2023-03-16T13:27:46;100884.25;;;18.15;30.99
23679;BME280;12016;51.668;6.874;2023-03-16T13:33:51;100985.44;;;20.12;28.97
23679;BME280;12016;51.668;6.874;2023-03-16T13:39:56;101091.53;;;22.04;27.55
23679;BME280;12016;51.668;6.874;2023-03-16T13:45:59;101090.91;;;20.99;26.96
23679;BME280;12016;51.668;6.874;2023-03-16T13:52:02;101081.25;;;19.24;30.01
23679;BME280;12016;51.668;6.874;2023-03-16T13:58:04;101076.66;;;19.74;29.72
23679;BME280;12016;51.668;6.874;2023-03-16T14:04:09;100693.19;;;16.66;30.75
23679;BME280;12016;51.668;6.874;2023-03-16T14:10:15;100896.34;;;20.45;28.08
23679;BME280;12016;51.668;6.874;2023-03-16T14:16:18;101040.44;;;19.54;29.33
23679;BME280;12016;51.668;6.874;2023-03-16T14:22:39;101028.44;;;18.75;32.02
23679;BME280;12016;51.668;6.874;2023-03-16T14:29:00;101010.19;;;18.05;32.43
23679;BME280;12016;51.668;6.874;2023-03-16T14:35:12;100787.13;;;17.30;32.76
23679;BME280;12016;51.668;6.874;2023-03-16T14:41:25;100819.09;;;18.30;31.73
23679;BME280;12016;51.668;6.874;2023-03-16T14:47:30;100830.88;;;19.32;30.00
23679;BME280;12016;51.668;6.874;2023-03-16T14:53:32;100799.72;;;19.07;30.55
23679;BME280;12016;51.668;6.874;2023-03-16T14:59:34;100969.44;;;20.14;30.31
23679;BME280;12016;51.668;6.874;2023-03-16T15:05:39;100583.59;;;17.89;31.07
23679;BME280;12016;51.668;6.874;2023-03-16T15:11:42;100937.44;;;21.33;29.05
23679;BME280;12016;51.668;6.874;2023-03-16T15:17:45;100940.03;;;21.70;29.31
23679;BME280;12016;51.668;6.874;2023-03-16T15:23:48;100726.94;;;19.85;29.55
23679;BME280;12016;51.668;6.874;2023-03-16T15:29:50;100911.47;;;20.72;30.08
23679;BME280;12016;51.668;6.874;2023-03-16T15:35:53;100830.31;;;19.76;30.61
23679;BME280;12016;51.668;6.874;2023-03-16T15:41:59;100922.00;;;19.20;31.94
23679;BME280;12016;51.668;6.874;2023-03-16T15:48:01;100485.00;;;14.85;33.09
23679;BME280;12016;51.668;6.874;2023-03-16T15:54:04;100910.69;;;17.26;34.37
23679;BME280;12016;51.668;6.874;2023-03-16T16:00:45;100906.56;;;17.16;35.91
23679;BME280;12016;51.668;6.874;2023-03-16T16:06:40;100891.81;;;16.70;36.41
23679;BME280;12016;51.668;6.874;2023-03-16T16:12:43;100680.03;;;14.90;37.21
23679;BME280;12016;51.668;6.874;2023-03-16T16:18:51;100919.72;;;15.59;37.08
23679;BME280;12016;51.668;6.874;2023-03-16T16:24:53;100603.56;;;13.51;36.91
23679;BME280;12016;51.668;6.874;2023-03-16T16:30:55;100843.75;;;14.98;36.85
23679;BME280;12016;51.668;6.874;2023-03-16T16:36:57;100828.72;;;14.76;37.32
23679;BME280;12016;51.668;6.874;2023-03-16T16:43:01;100902.94;;;14.72;37.40
23679;BME280;12016;51.668;6.874;2023-03-16T16:49:17;100905.81;;;14.54;38.80
23679;BME280;12016;51.668;6.874;2023-03-16T16:55:21;100537.34;;;11.78;38.78
23679;BME280;12016;51.668;6.874;2023-03-16T17:01:26;100882.94;;;13.89;39.21
23679;BME280;12016;51.668;6.874;2023-03-16T17:07:29;100682.75;;;12.56;39.42
23679;BME280;12016;51.668;6.874;2023-03-16T17:13:36;100843.72;;;13.54;40.31
23679;BME280;12016;51.668;6.874;2023-03-16T17:19:43;100879.56;;;13.51;40.29
23679;BME280;12016;51.668;6.874;2023-03-16T17:25:48;100885.03;;;13.42;40.76
23679;BME280;12016;51.668;6.874;2023-03-16T17:31:51;100898.72;;;13.16;40.73
23679;BME280;12016;51.668;6.874;2023-03-16T17:37:53;100835.44;;;12.71;41.84
23679;BME280;12016;51.668;6.874;2023-03-16T17:43:56;100332.63;;;9.13;41.59
23679;BME280;12016;51.668;6.874;2023-03-16T17:50:00;100741.31;;;11.79;42.68
23679;BME280;12016;51.668;6.874;2023-03-16T17:56:01;100554.22;;;10.34;42.62
23679;BME280;12016;51.668;6.874;2023-03-16T18:02:24;100672.47;;;11.04;43.19
23679;BME280;12016;51.668;6.874;2023-03-16T18:08:33;100877.16;;;12.35;44.24
23679;BME280;12016;51.668;6.874;2023-03-16T18:14:37;100731.94;;;11.17;44.53
23679;BME280;12016;51.668;6.874;2023-03-16T18:20:40;100750.84;;;11.25;44.67
23679;BME280;12016;51.668;6.874;2023-03-16T18:26:42;100874.50;;;12.01;44.72
23679;BME280;12016;51.668;6.874;2023-03-16T18:32:44;100880.72;;;11.93;44.85
23679;BME280;12016;51.668;6.874;2023-03-16T18:38:48;100697.50;;;10.79;45.71
23679;BME280;12016;51.668;6.874;2023-03-16T18:44:51;100881.81;;;11.92;45.36
23679;BME280;12016;51.668;6.874;2023-03-16T18:50:53;100880.72;;;11.93;45.59
23679;BME280;12016;51.668;6.874;2023-03-16T18:56:55;100874.66;;;11.87;45.89
23679;BME280;12016;51.668;6.874;2023-03-16T19:03:01;100647.84;;;10.37;45.41
23679;BME280;12016;51.668;6.874;2023-03-16T19:09:09;100610.66;;;9.99;45.77
23679;BME280;12016;51.668;6.874;2023-03-16T19:15:21;100890.19;;;11.81;46.08
23679;BME280;12016;51.668;6.874;2023-03-16T19:21:23;100788.25;;;11.18;45.79
23679;BME280;12016;51.668;6.874;2023-03-16T19:27:31;100579.28;;;9.95;45.87
23679;BME280;12016;51.668;6.874;2023-03-16T19:33:36;100881.97;;;11.78;46.20
23679;BME280;12016;51.668;6.874;2023-03-16T19:39:40;100877.00;;;11.71;45.91
23679;BME280;12016;51.668;6.874;2023-03-16T19:45:43;100864.25;;;11.29;46.09
23679;BME280;12016;51.668;6.874;2023-03-16T19:51:46;100870.81;;;11.54;45.81
23679;BME280;12016;51.668;6.874;2023-03-16T19:57:57;100856.66;;;11.57;46.29
23679;BME280;12016;51.668;6.874;2023-03-16T20:03:59;100682.72;;;10.51;46.01
23679;BME280;12016;51.668;6.874;2023-03-16T20:10:05;100829.69;;;11.48;46.19
23679;BME280;12016;51.668;6.874;2023-03-16T20:16:13;100554.06;;;9.74;46.66
23679;BME280;12016;51.668;6.874;2023-03-16T20:22:21;100806.53;;;11.38;46.51
23679;BME280;12016;51.668;6.874;2023-03-16T20:28:28;100711.56;;;10.59;46.38
23679;BME280;12016;51.668;6.874;2023-03-16T20:34:32;100589.25;;;9.94;46.57
23679;BME280;12016;51.668;6.874;2023-03-16T20:40:34;100806.03;;;11.36;46.46
23679;BME280;12016;51.668;6.874;2023-03-16T20:46:36;100798.25;;;11.26;46.62
23679;BME280;12016;51.668;6.874;2023-03-16T20:52:43;100608.31;;;10.15;46.35
23679;BME280;12016;51.668;6.874;2023-03-16T20:58:46;100772.88;;;11.36;46.63
23679;BME280;12016;51.668;6.874;2023-03-16T21:04:50;100615.38;;;10.42;46.42
23679;BME280;12016;51.668;6.874;2023-03-16T21:10:52;100684.50;;;10.72;46.69
23679;BME280;12016;51.668;6.874;2023-03-16T21:16:54;100755.25;;;11.30;47.18
23679;BME280;12016;51.668;6.874;2023-03-16T21:22:57;100511.66;;;9.79;46.72
23679;BME280;12016;51.668;6.874;2023-03-16T21:29:02;100668.81;;;10.74;47.01
23679;BME280;12016;51.668;6.874;2023-03-16T21:35:12;100471.53;;;9.43;46.78
23679;BME280;12016;51.668;6.874;2023-03-16T21:41:14;100743.50;;;11.17;46.25
23679;BME280;12016;51.668;6.874;2023-03-16T21:47:23;100733.53;;;11.18;46.33
23679;BME280;12016;51.668;6.874;2023-03-16T21:53:28;100725.13;;;11.10;46.70
23679;BME280;12016;51.668;6.874;2023-03-16T21:59:31;100713.69;;;11.05;46.99
23679;BME280;12016;51.668;6.874;2023-03-16T22:05:36;100652.88;;;10.30;46.70
23679;BME280;12016;51.668;6.874;2023-03-16T22:11:38;100638.06;;;10.58;46.59
23679;BME280;12016;51.668;6.874;2023-03-16T22:17:39;100157.31;;;7.54;46.28
23679;BME280;12016;51.668;6.874;2023-03-16T22:23:42;100684.06;;;10.96;46.68
23679;BME280;12016;51.668;6.874;2023-03-16T22:29:44;100521.63;;;9.79;46.66
23679;BME280;12016;51.668;6.874;2023-03-16T22:35:47;100676.09;;;10.74;46.90
23679;BME280;12016;51.668;6.874;2023-03-16T22:41:50;100566.72;;;10.30;45.89
23679;BME280;12016;51.668;6.874;2023-03-16T22:47:53;100674.38;;;11.04;46.08
23679;BME280;12016;51.668;6.874;2023-03-16T22:54:00;100057.66;;;7.12;46.32
23679;BME280;12016;51.668;6.874;2023-03-16T23:00:03;100679.94;;;11.07;46.14
23679;BME280;12016;51.668;6.874;2023-03-16T23:06:16;100690.41;;;11.00;45.97
23679;BME280;12016;51.668;6.874;2023-03-16T23:12:20;100672.19;;;11.15;45.79
23679;BME280;12016;51.668;6.874;2023-03-16T23:18:24;100586.72;;;10.72;45.96
23679;BME280;12016;51.668;6.874;2023-03-16T23:24:26;100623.19;;;10.95;45.85
23679;BME280;12016;51.668;6.874;2023-03-16T23:30:28;100500.69;;;10.32;45.69
23679;BME280;12016;51.668;6.874;2023-03-16T23:36:31;100340.25;;;9.37;45.56
23679;BME280;12016;51.668;6.874;2023-03-16T23:42:34;100468.81;;;10.00;45.61
23679;BME280;12016;51.668;6.874;2023-03-16T23:48:37;100631.25;;;11.13;45.18
23679;BME280;12016;51.668;6.874;2023-03-16T23:54:40;100473.31;;;10.22;44.66
